Time;durP1;ratioP1;P1;durP2;ratioP2;P2;SDS_P1;SDS_P2;PMS_P1;PMS_P2;Temp;Humidity;BMP_temperature;BMP_pressure;BME280_temperature;BME280_humidity;BME280_pressure;Samples;Min_cycle;Max_cycle;Signal;HPM_P1;HPM_P2
2022/08/07 00:02:04;;;;;;;12.87;11.87;;;;;;;25.13;72.32;99060.34;5070008;28;20597;-65
2022/08/07 00:04:31;;;;;;;12.50;11.20;;;;;;;25.10;72.29;99066.59;5070228;28;20198;-65
2022/08/07 00:06:59;;;;;;;13.10;11.77;;;;;;;25.08;72.92;99052.66;5070502;28;20203;-65
2022/08/07 00:09:26;;;;;;;13.13;11.93;;;;;;;25.03;72.37;99053.81;5069972;28;20202;-64
2022/08/07 00:11:54;;;;;;;16.93;12.60;;;;;;;24.95;72.42;99051.56;5069993;28;20195;-65
2022/08/07 00:14:21;;;;;;;13.83;12.50;;;;;;;24.98;72.93;99054.06;5069858;28;20199;-65
2022/08/07 00:16:48;;;;;;;13.32;12.02;;;;;;;24.96;72.64;99053.28;5069192;28;20465;-64
2022/08/07 00:19:14;;;;;;;12.40;11.27;;;;;;;24.98;72.59;99054.06;5069888;28;20256;-66
2022/08/07 00:21:41;;;;;;;16.03;12.60;;;;;;;24.92;72.64;99049.09;5070038;28;20272;-65
2022/08/07 00:24:09;;;;;;;13.40;12.00;;;;;;;24.83;73.00;99046.06;5069889;28;20197;-64
2022/08/07 00:26:36;;;;;;;13.27;11.97;;;;;;;24.78;73.53;99051.50;5070115;28;20191;-64
2022/08/07 00:29:03;;;;;;;13.50;12.27;;;;;;;24.73;73.46;99045.63;5069803;28;20195;-64
2022/08/07 00:31:30;;;;;;;13.10;11.00;;;;;;;24.71;73.91;99044.00;5070051;28;20196;-64
2022/08/07 00:33:57;;;;;;;11.33;10.43;;;;;;;24.63;74.19;99044.38;5069946;28;20191;-64
2022/08/07 00:36:23;;;;;;;12.80;11.60;;;;;;;24.67;73.95;99037.22;5069943;28;20199;-65
2022/08/07 00:38:50;;;;;;;11.63;10.50;;;;;;;24.73;73.83;99039.50;5069651;28;20195;-64
2022/08/07 00:41:26;;;;;;;11.67;10.67;;;;;;;24.72;72.93;99046.56;5069630;28;20223;-65
2022/08/07 00:43:52;;;;;;;11.93;10.73;;;;;;;24.70;72.75;99039.66;5069930;28;20188;-64
2022/08/07 00:46:19;;;;;;;11.77;10.63;;;;;;;24.67;73.10;99035.41;5069772;28;20200;-65
2022/08/07 00:48:46;;;;;;;11.27;10.30;;;;;;;24.67;73.08;99043.28;5069880;28;20207;-65
2022/08/07 00:51:14;;;;;;;11.70;10.70;;;;;;;24.70;72.93;99047.53;5069685;28;20198;-64
2022/08/07 00:53:41;;;;;;;10.87;9.97;;;;;;;24.70;72.92;99048.41;5069869;28;20199;-64
2022/08/07 00:56:11;;;;;;;14.77;11.23;;;;;;;24.72;72.84;99043.94;5069792;28;20278;-64
2022/08/07 00:58:42;;;;;;;12.40;11.13;;;;;;;24.63;72.94;99042.59;5069819;28;20232;-65
2022/08/07 01:01:08;;;;;;;12.33;11.23;;;;;;;24.59;73.45;99046.28;5069523;28;20251;-65
2022/08/07 01:03:35;;;;;;;11.80;10.70;;;;;;;24.55;73.66;99047.38;5069621;28;20578;-65
2022/08/07 01:06:03;;;;;;;12.77;11.57;;;;;;;24.53;73.81;99048.38;5069822;28;20196;-64
2022/08/07 01:08:30;;;;;;;11.57;10.47;;;;;;;24.53;73.74;99043.13;5069945;28;20195;-65
2022/08/07 01:10:57;;;;;;;14.00;12.57;;;;;;;24.52;74.23;99052.78;5069641;28;20650;-64
2022/08/07 01:13:24;;;;;;;14.13;12.83;;;;;;;24.48;74.80;99039.84;5069697;28;20207;-64
2022/08/07 01:15:53;;;;;;;14.23;12.73;;;;;;;24.49;74.37;99037.16;5069732;28;20196;-64
2022/08/07 01:18:20;;;;;;;15.20;13.70;;;;;;;24.50;74.90;99043.25;5069418;28;20654;-63
2022/08/07 01:20:52;;;;;;;13.80;12.43;;;;;;;24.43;75.37;99033.94;5069784;28;20287;-65
2022/08/07 01:23:21;;;;;;;13.73;12.37;;;;;;;24.39;75.39;99035.84;5069424;28;20192;-65
2022/08/07 01:25:49;;;;;;;14.23;12.93;;;;;;;24.35;75.20;99039.56;5071141;28;20448;-65
2022/08/07 01:28:16;;;;;;;12.90;11.80;;;;;;;24.29;75.39;99034.59;5072920;28;20670;-65
2022/08/07 01:30:45;;;;;;;12.67;11.43;;;;;;;24.20;74.80;99040.25;5072986;28;20269;-63
2022/08/07 01:33:12;;;;;;;12.10;10.90;;;;;;;24.14;75.22;99039.72;5073079;28;20279;-63
2022/08/07 01:35:39;;;;;;;11.50;10.40;;;;;;;24.16;75.21;99040.50;5073256;28;20199;-65
2022/08/07 01:38:07;;;;;;;11.60;10.50;;;;;;;24.19;74.88;99037.72;5072752;28;20191;-65
2022/08/07 01:40:36;;;;;;;11.97;10.97;;;;;;;24.16;74.71;99038.72;5072754;28;20195;-65
2022/08/07 01:43:03;;;;;;;11.90;10.80;;;;;;;24.07;75.02;99033.84;5072624;28;20697;-65
2022/08/07 01:45:31;;;;;;;13.33;12.03;;;;;;;24.05;74.78;99028.69;5072659;28;20200;-65
2022/08/07 01:47:58;;;;;;;11.23;10.23;;;;;;;24.01;75.17;99034.97;5072552;28;20245;-63
2022/08/07 01:50:26;;;;;;;11.47;10.33;;;;;;;24.00;75.43;99041.16;5072780;28;20191;-64
2022/08/07 01:52:57;;;;;;;11.77;10.67;;;;;;;24.00;75.19;99029.81;5072687;28;20192;-65
2022/08/07 01:55:26;;;;;;;11.17;10.10;;;;;;;23.96;75.17;99031.72;5072560;28;20202;-65
2022/08/07 01:57:58;;;;;;;11.17;10.17;;;;;;;23.94;74.63;99037.97;5072606;28;20382;-65
2022/08/07 02:00:29;;;;;;;12.37;11.07;;;;;;;23.92;74.79;99034.56;5072512;28;20191;-65
2022/08/07 02:02:59;;;;;;;12.03;10.93;;;;;;;23.87;75.20;99024.25;5072334;28;20261;-65
2022/08/07 02:05:31;;;;;;;12.10;10.90;;;;;;;23.86;75.60;99032.22;5072286;28;20540;-65
2022/08/07 02:08:02;;;;;;;15.20;11.50;;;;;;;23.82;75.58;99039.34;5072256;28;20191;-65
2022/08/07 02:10:32;;;;;;;13.23;12.02;;;;;;;23.81;75.80;99031.56;5071919;28;20452;-63
2022/08/07 02:13:03;;;;;;;12.37;11.27;;;;;;;23.79;76.10;99028.13;5072140;28;20191;-64
2022/08/07 02:15:31;;;;;;;13.63;12.33;;;;;;;23.80;75.95;99035.97;5072360;28;20195;-65
2022/08/07 02:18:01;;;;;;;11.43;10.40;;;;;;;23.74;75.80;99025.72;5072038;28;20246;-65
2022/08/07 02:20:31;;;;;;;12.13;10.90;;;;;;;23.77;76.19;99038.72;5071973;28;20192;-64
2022/08/07 02:23:02;;;;;;;12.27;11.20;;;;;;;23.76;76.19;99031.75;5072146;28;20219;-64
2022/08/07 02:25:31;;;;;;;12.50;11.40;;;;;;;23.74;75.93;99035.38;5072209;28;20582;-65
2022/08/07 02:28:01;;;;;;;12.70;11.47;;;;;;;23.68;76.42;99031.25;5072274;28;20199;-65
2022/08/07 02:30:30;;;;;;;11.63;10.70;;;;;;;23.67;76.33;99029.56;5072187;28;20245;-65
2022/08/07 02:32:59;;;;;;;12.13;11.03;;;;;;;23.69;76.23;99029.47;5071834;28;20245;-65
2022/08/07 02:35:27;;;;;;;11.00;9.90;;;;;;;23.73;76.08;99034.53;5071652;28;20198;-65
2022/08/07 02:37:57;;;;;;;13.30;11.33;;;;;;;23.74;75.81;99038.00;5071625;28;20207;-64
2022/08/07 02:40:25;;;;;;;20.00;11.03;;;;;;;23.75;75.44;99031.84;5071818;28;20603;-64
2022/08/07 02:42:54;;;;;;;11.80;10.70;;;;;;;23.73;75.36;99017.94;5071641;28;20216;-65
2022/08/07 02:45:26;;;;;;;11.90;10.90;;;;;;;23.66;75.75;99022.59;5071623;28;20252;-64
2022/08/07 02:47:53;;;;;;;12.43;11.43;;;;;;;23.68;75.59;99031.25;5071498;28;20199;-63
2022/08/07 02:50:21;;;;;;;11.90;10.80;;;;;;;23.69;75.39;99032.97;5071471;28;20727;-65
2022/08/07 02:52:53;;;;;;;11.57;10.50;;;;;;;23.67;75.96;99028.69;5071842;28;20198;-64
2022/08/07 02:55:23;;;;;;;12.53;11.20;;;;;;;23.70;76.04;99029.44;5071766;28;20278;-63
2022/08/07 02:57:52;;;;;;;11.50;10.50;;;;;;;23.69;75.62;99026.84;5071265;28;20199;-65
2022/08/07 03:00:19;;;;;;;11.93;10.73;;;;;;;23.74;75.78;99038.84;5071252;28;20191;-65
2022/08/07 03:02:51;;;;;;;11.30;10.20;;;;;;;23.78;74.95;99029.94;5071283;28;20217;-65
2022/08/07 03:05:19;;;;;;;11.50;10.40;;;;;;;23.78;75.04;99024.69;5071013;28;20191;-64
2022/08/07 03:07:47;;;;;;;10.57;9.77;;;;;;;23.83;74.66;99045.47;5071286;28;20203;-63
2022/08/07 03:10:15;;;;;;;11.17;9.97;;;;;;;23.83;74.58;99030.56;5071088;28;20187;-65
2022/08/07 03:12:44;;;;;;;10.80;9.90;;;;;;;23.89;73.50;99030.31;5070945;28;20250;-65
2022/08/07 03:15:11;;;;;;;10.83;9.83;;;;;;;23.92;73.68;99035.41;5071129;28;20191;-65
2022/08/07 03:17:39;;;;;;;10.30;9.30;;;;;;;23.93;73.13;99041.50;5070634;28;20227;-65
2022/08/07 03:20:09;;;;;;;11.55;10.38;;;;;;;23.93;73.52;99042.34;5070814;28;20981;-65
2022/08/07 03:22:37;;;;;;;11.93;10.70;;;;;;;23.91;73.96;99041.56;5070796;28;20226;-65
2022/08/07 03:25:05;;;;;;;11.03;10.13;;;;;;;23.88;74.36;99039.09;5070862;28;20192;-65
2022/08/07 03:27:33;;;;;;;12.60;10.50;;;;;;;23.83;73.98;99038.44;5070502;28;20191;-64
2022/08/07 03:30:01;;;;;;;11.67;10.50;;;;;;;23.77;74.36;99043.97;5070599;28;20191;-65
2022/08/07 03:32:33;;;;;;;11.60;10.50;;;;;;;23.79;74.25;99047.34;5070683;28;20195;-64
2022/08/07 03:35:02;;;;;;;11.97;10.87;;;;;;;23.79;74.92;99049.13;5070568;28;20203;-64
2022/08/07 03:37:34;;;;;;;11.13;10.17;;;;;;;23.77;74.89;99049.22;5070548;28;20191;-64
2022/08/07 03:40:02;;;;;;;11.27;10.17;;;;;;;23.79;74.99;99055.22;5070457;28;20198;-64
2022/08/07 03:42:32;;;;;;;11.30;10.20;;;;;;;23.83;74.79;99055.97;5070481;28;20216;-65
2022/08/07 03:44:59;;;;;;;10.10;9.20;;;;;;;23.83;74.81;99053.34;5070825;28;20214;-65
2022/08/07 03:47:27;;;;;;;11.48;10.45;;;;;;;23.84;74.17;99050.63;5069772;28;20458;-65
2022/08/07 03:49:54;;;;;;;11.67;10.57;;;;;;;23.93;73.79;99057.25;5070312;28;20199;-65
2022/08/07 03:52:22;;;;;;;11.70;10.70;;;;;;;23.98;73.79;99048.25;5070173;28;20662;-64
2022/08/07 03:54:51;;;;;;;10.77;9.87;;;;;;;24.03;73.06;99051.50;5070061;28;20196;-64
2022/08/07 03:57:19;;;;;;;11.60;10.13;;;;;;;24.13;72.76;99046.75;5070442;28;20191;-64
2022/08/07 03:59:47;;;;;;;11.23;10.33;;;;;;;24.25;72.36;99061.09;5070077;28;20743;-64
2022/08/07 04:02:14;;;;;;;10.60;9.60;;;;;;;24.28;71.68;99053.06;5070013;28;20313;-64
2022/08/07 04:04:42;;;;;;;10.93;10.03;;;;;;;24.26;72.10;99045.25;5070121;28;20211;-64
2022/08/07 04:07:09;;;;;;;10.80;9.90;;;;;;;24.34;71.45;99047.50;5070268;28;20194;-65
2022/08/07 04:09:37;;;;;;;10.73;9.73;;;;;;;24.27;71.77;99046.97;5070152;28;20187;-64
2022/08/07 04:12:06;;;;;;;10.97;10.07;;;;;;;24.40;71.27;99057.72;5069817;28;20191;-64
2022/08/07 04:14:34;;;;;;;10.53;9.50;;;;;;;24.47;70.80;99054.75;5070062;28;20191;-64
2022/08/07 04:17:01;;;;;;;10.97;9.97;;;;;;;24.55;70.57;99051.78;5069788;28;20276;-65
2022/08/07 04:19:29;;;;;;;10.83;9.83;;;;;;;24.52;70.14;99031.75;5069968;28;20191;-64
2022/08/07 04:21:56;;;;;;;11.53;10.43;;;;;;;24.70;69.87;99056.28;5070046;28;20222;-65
2022/08/07 04:24:24;;;;;;;11.17;10.07;;;;;;;24.68;70.01;99052.88;5070201;28;20191;-65
2022/08/07 04:26:51;;;;;;;10.93;9.93;;;;;;;24.70;70.02;99058.91;5069897;28;20260;-64
2022/08/07 04:29:19;;;;;;;10.80;9.70;;;;;;;24.75;70.05;99058.72;5069745;28;20245;-63
2022/08/07 04:31:46;;;;;;;11.27;10.30;;;;;;;24.76;70.18;99058.63;5069393;28;20437;-65
2022/08/07 04:34:13;;;;;;;11.93;10.77;;;;;;;24.89;69.55;99061.53;5070083;28;20203;-65
2022/08/07 04:36:41;;;;;;;11.73;10.40;;;;;;;24.95;69.71;99058.59;5069834;28;20202;-65
2022/08/07 04:39:09;;;;;;;11.10;10.10;;;;;;;25.01;69.12;99059.16;5069970;28;20192;-65
2022/08/07 04:41:36;;;;;;;10.33;9.50;;;;;;;25.04;68.48;99061.66;5069975;28;20282;-65
2022/08/07 04:44:03;;;;;;;11.47;10.30;;;;;;;25.12;68.73;99069.16;5069706;28;20219;-64
2022/08/07 04:46:38;;;;;;;10.90;10.00;;;;;;;25.21;68.59;99061.66;5069681;28;20196;-64
2022/08/07 04:49:15;;;;;;;10.93;9.93;;;;;;;25.26;68.49;99060.56;5069885;28;20195;-65
2022/08/07 04:51:50;;;;;;;13.07;10.47;;;;;;;25.17;68.20;99072.41;5069658;28;20195;-65
2022/08/07 04:54:24;;;;;;;11.07;10.10;;;;;;;25.10;68.77;99077.13;5069824;28;20268;-64
2022/08/07 04:56:57;;;;;;;12.20;10.48;;;;;;;24.99;69.22;99079.44;5069583;28;20429;-65
2022/08/07 04:59:30;;;;;;;11.47;10.37;;;;;;;24.83;69.82;99073.19;5069603;28;20188;-64
2022/08/07 05:02:05;;;;;;;11.13;10.13;;;;;;;24.86;70.33;99080.91;5073511;28;20253;-64
2022/08/07 05:04:40;;;;;;;12.50;10.70;;;;;;;24.84;70.55;99074.91;5073419;28;20573;-65
2022/08/07 05:07:13;;;;;;;11.73;10.60;;;;;;;24.87;70.54;99074.75;5073357;28;20278;-65
2022/08/07 05:09:44;;;;;;;12.80;11.50;;;;;;;24.88;70.59;99075.59;5073548;28;20211;-65
2022/08/07 05:12:14;;;;;;;12.07;10.37;;;;;;;24.92;70.48;99085.03;5073447;28;20199;-64
2022/08/07 05:14:44;;;;;;;10.87;9.97;;;;;;;24.91;70.11;99073.69;5073448;28;20210;-64
2022/08/07 05:17:15;;;;;;;12.43;11.33;;;;;;;24.90;70.31;99082.50;5073024;28;20228;-64
2022/08/07 05:19:48;;;;;;;13.50;10.60;;;;;;;24.92;70.46;99088.53;5072926;28;20705;-65
2022/08/07 05:22:17;;;;;;;11.83;10.83;;;;;;;24.97;70.18;99098.84;5073432;28;20249;-65
2022/08/07 05:24:45;;;;;;;12.60;11.17;;;;;;;25.03;69.93;99096.75;5073111;28;20202;-64
2022/08/07 05:27:17;;;;;;;13.57;11.30;;;;;;;25.11;69.53;99093.72;5073153;28;20191;-64
2022/08/07 05:29:46;;;;;;;12.73;11.67;;;;;;;25.18;69.49;99098.63;5073029;28;20191;-64
2022/08/07 05:32:17;;;;;;;12.73;11.53;;;;;;;25.20;69.68;99096.78;5072908;28;20192;-65
2022/08/07 05:34:47;;;;;;;14.40;11.70;;;;;;;25.28;69.45;99104.28;5073074;28;20211;-65
2022/08/07 05:37:16;;;;;;;12.93;11.73;;;;;;;25.43;69.12;99102.66;5072762;28;20195;-65
2022/08/07 05:39:44;;;;;;;14.23;12.77;;;;;;;25.48;68.71;99100.69;5072632;28;20192;-65
2022/08/07 05:42:12;;;;;;;14.00;12.63;;;;;;;25.59;68.68;99103.63;5072458;28;20487;-65
2022/08/07 05:44:41;;;;;;;13.43;12.27;;;;;;;25.65;68.26;99103.31;5072828;28;20203;-65
2022/08/07 05:47:09;;;;;;;12.90;11.73;;;;;;;25.69;68.00;99107.47;5072866;28;20203;-65
2022/08/07 05:49:37;;;;;;;13.40;12.13;;;;;;;25.82;67.61;99105.09;5072611;28;20620;-64
2022/08/07 05:52:05;;;;;;;13.70;12.30;;;;;;;25.92;67.00;99111.56;5072386;28;20704;-64
2022/08/07 05:54:32;;;;;;;12.10;10.90;;;;;;;26.03;66.17;99117.13;5072203;28;20188;-63
2022/08/07 05:56:59;;;;;;;12.10;10.90;;;;;;;26.18;65.83;99125.09;5072545;28;20195;-64
2022/08/07 05:59:27;;;;;;;12.93;11.60;;;;;;;26.16;65.15;99095.34;5072243;28;20202;-64
2022/08/07 06:01:56;;;;;;;13.07;11.93;;;;;;;26.50;64.90;99127.78;5072080;28;20742;-64
2022/08/07 06:04:24;;;;;;;12.80;11.48;;;;;;;26.73;64.39;99125.59;5072019;28;20724;-63
2022/08/07 06:06:53;;;;;;;12.80;11.55;;;;;;;27.00;63.26;99120.59;5071968;28;20736;-65
2022/08/07 06:09:20;;;;;;;11.85;10.60;;;;;;;27.24;61.91;99137.69;5072363;28;20191;-64
2022/08/07 06:11:47;;;;;;;12.30;11.15;;;;;;;27.41;61.50;99132.28;5071807;28;20206;-65
2022/08/07 06:14:14;;;;;;;11.57;10.27;;;;;;;27.67;59.53;99127.28;5072159;28;20566;-65
2022/08/07 06:16:44;;;;;;;11.30;10.18;;;;;;;27.87;59.28;99127.81;5071632;28;20187;-65
2022/08/07 06:19:12;;;;;;;11.80;10.68;;;;;;;28.12;58.59;99129.00;5072132;28;20202;-64
2022/08/07 06:21:39;;;;;;;10.35;9.15;;;;;;;28.31;57.45;99129.56;5071942;28;20195;-63
2022/08/07 06:24:08;;;;;;;12.27;9.65;;;;;;;28.40;56.79;99132.50;5071751;28;20219;-63
2022/08/07 06:26:39;;;;;;;12.38;10.90;;;;;;;28.49;55.83;99123.13;5071924;28;20282;-63
2022/08/07 06:29:06;;;;;;;11.50;10.40;;;;;;;28.47;56.24;99106.50;5071940;28;20205;-63
2022/08/07 06:31:33;;;;;;;10.43;9.63;;;;;;;28.75;55.45;99122.38;5071522;28;20191;-63
2022/08/07 06:33:59;;;;;;;11.27;10.27;;;;;;;28.85;53.52;99133.19;5071997;28;20184;-63
2022/08/07 06:36:26;;;;;;;9.82;9.02;;;;;;;28.79;53.68;99130.97;5071503;28;20226;-65
2022/08/07 06:38:54;;;;;;;10.85;9.85;;;;;;;28.85;52.99;99130.53;5071348;28;20278;-64
2022/08/07 06:41:26;;;;;;;10.13;9.20;;;;;;;28.76;52.93;99116.09;5071884;28;20187;-64
2022/08/07 06:43:54;;;;;;;10.75;9.95;;;;;;;28.85;52.89;99128.75;5071132;28;20219;-64
2022/08/07 06:46:21;;;;;;;10.00;9.27;;;;;;;28.80;52.25;99124.72;5071331;28;20578;-65
2022/08/07 06:48:48;;;;;;;11.07;9.98;;;;;;;28.90;52.00;99131.13;5071128;28;20191;-64
2022/08/07 06:51:20;;;;;;;10.52;9.52;;;;;;;29.00;51.15;99124.28;5071403;28;20433;-64
2022/08/07 06:53:48;;;;;;;10.05;9.20;;;;;;;29.21;50.38;99130.81;5070724;28;20196;-65
2022/08/07 06:56:38;;;;;;;10.07;9.13;;;;;;;29.31;50.21;99133.75;5070601;28;20203;-65
2022/08/07 06:59:07;;;;;;;9.80;9.00;;;;;;;29.43;50.22;99136.44;5070409;28;20198;-64
2022/08/07 07:01:36;;;;;;;10.18;9.15;;;;;;;29.46;51.09;99130.94;5070674;28;20279;-65
2022/08/07 07:04:04;;;;;;;11.85;9.65;;;;;;;29.59;50.54;99136.25;5070765;28;20222;-64
2022/08/07 07:06:31;;;;;;;10.25;9.25;;;;;;;29.68;50.82;99128.53;5070862;28;20199;-64
2022/08/07 07:09:16;;;;;;;10.60;9.60;;;;;;;29.87;50.26;99129.97;5070753;28;20264;-66
2022/08/07 07:11:49;;;;;;;9.95;9.10;;;;;;;29.97;49.31;99137.16;5070814;28;20196;-65
2022/08/07 07:14:21;;;;;;;10.80;9.45;;;;;;;30.13;48.58;99140.50;5070824;28;20200;-64
2022/08/07 07:16:52;;;;;;;10.10;9.20;;;;;;;30.23;47.64;99138.88;5070482;28;20196;-64
2022/08/07 07:19:25;;;;;;;11.25;10.25;;;;;;;30.31;47.74;99138.34;5069628;28;20446;-64
2022/08/07 07:21:54;;;;;;;10.93;9.98;;;;;;;30.47;47.71;99141.63;5070448;28;20203;-65
2022/08/07 07:24:21;;;;;;;10.68;9.70;;;;;;;30.51;47.35;99142.28;5069485;28;20268;-65
2022/08/07 07:26:51;;;;;;;11.75;10.68;;;;;;;30.57;47.56;99145.34;5070037;28;20203;-66
2022/08/07 07:29:23;;;;;;;14.65;13.25;;;;;;;30.57;46.72;99142.69;5070733;28;20211;-65
2022/08/07 07:31:54;;;;;;;9.68;8.90;;;;;;;30.61;44.41;99144.16;5070171;28;20191;-65
2022/08/07 07:34:25;;;;;;;9.70;8.70;;;;;;;30.62;43.82;99143.22;5070417;28;20192;-65
2022/08/07 07:36:53;;;;;;;9.18;8.48;;;;;;;30.57;44.59;99150.66;5069939;28;20252;-66
2022/08/07 07:39:22;;;;;;;9.02;8.32;;;;;;;30.57;44.11;99155.09;5069560;28;20245;-66
2022/08/07 07:41:51;;;;;;;9.43;8.45;;;;;;;30.80;44.53;99149.84;5069687;28;20642;-66
2022/08/07 07:44:21;;;;;;;10.15;9.10;;;;;;;30.83;43.24;99149.63;5070011;28;20223;-65
2022/08/07 07:46:49;;;;;;;9.40;8.55;;;;;;;30.66;44.01;99149.13;5070023;28;20253;-65
2022/08/07 07:49:19;;;;;;;9.68;8.70;;;;;;;30.54;44.06;99157.97;5070336;28;20204;-65
2022/08/07 07:51:48;;;;;;;9.65;8.80;;;;;;;30.28;44.52;99155.31;5069827;28;20606;-64
2022/08/07 07:54:17;;;;;;;9.32;8.50;;;;;;;30.09;44.55;99154.88;5069624;28;20198;-65
2022/08/07 07:56:46;;;;;;;10.52;9.25;;;;;;;30.12;44.94;99151.19;5069537;28;20192;-65
2022/08/07 07:59:15;;;;;;;10.80;9.85;;;;;;;29.88;45.16;99148.41;5069331;28;20308;-66
2022/08/07 08:01:46;;;;;;;9.40;8.70;;;;;;;29.93;45.72;99162.19;5069531;28;20269;-65
2022/08/07 08:04:14;;;;;;;9.85;9.07;;;;;;;30.15;44.82;99148.31;5068421;28;20453;-66
2022/08/07 08:06:42;;;;;;;10.73;8.40;;;;;;;30.32;43.65;99158.59;5069554;28;20246;-65
2022/08/07 08:09:10;;;;;;;9.75;8.90;;;;;;;30.37;43.73;99151.19;5069471;28;20740;-65
2022/08/07 08:11:38;;;;;;;9.48;8.68;;;;;;;30.52;42.93;99150.09;5069401;28;20666;-65
2022/08/07 08:14:05;;;;;;;10.20;9.30;;;;;;;30.71;42.86;99152.31;5069709;28;20184;-65
2022/08/07 08:16:37;;;;;;;11.60;10.60;;;;;;;30.93;42.67;99145.38;5069655;28;20213;-65
2022/08/07 08:19:07;;;;;;;11.05;10.05;;;;;;;31.11;41.83;99143.19;5069265;28;20587;-65
2022/08/07 08:27:08;;;;;;;11.60;10.60;;;;;;;31.04;41.79;99141.94;5058357;28;20203;-65
2022/08/07 08:29:42;;;;;;;11.35;9.45;;;;;;;31.15;41.38;99149.13;5069168;28;20091;-65
2022/08/07 08:32:11;;;;;;;9.57;8.77;;;;;;;30.83;41.12;99149.63;5069060;28;20187;-65
2022/08/07 08:34:43;;;;;;;10.20;9.32;;;;;;;30.66;41.97;99155.28;5070904;28;20570;-65
2022/08/07 08:37:12;;;;;;;10.73;9.63;;;;;;;30.91;40.58;99146.41;5073294;28;20243;-65
2022/08/07 08:39:42;;;;;;;10.20;8.93;;;;;;;30.70;41.28;99117.00;5073251;28;20230;-65
2022/08/07 08:42:19;;;;;;;11.05;10.05;;;;;;;31.00;42.07;99152.91;5073091;28;20686;-65
2022/08/07 08:44:54;;;;;;;10.18;9.35;;;;;;;31.04;41.22;99126.00;5072940;28;20720;-65
2022/08/07 08:47:27;;;;;;;10.60;9.50;;;;;;;31.12;41.69;99130.78;5072894;28;20190;-64
2022/08/07 08:50:12;;;;;;;10.38;9.40;;;;;;;31.10;41.16;99130.03;5072881;28;20194;-65
2022/08/07 08:52:49;;;;;;;10.00;9.20;;;;;;;31.20;40.96;99128.41;5072719;28;20620;-65
2022/08/07 08:55:23;;;;;;;10.13;9.32;;;;;;;31.21;41.29;99128.28;5073022;28;20566;-66
2022/08/07 08:58:01;;;;;;;10.85;9.88;;;;;;;31.40;42.12;99131.25;5072424;28;20202;-66
2022/08/07 09:00:32;;;;;;;9.25;8.32;;;;;;;31.24;38.91;99137.81;5072288;28;20643;-65
2022/08/07 09:03:02;;;;;;;8.32;7.63;;;;;;;31.10;37.27;99136.19;5072835;28;20554;-65
2022/08/07 09:05:41;;;;;;;8.40;7.70;;;;;;;31.16;38.07;99130.44;5072334;28;20215;-66
2022/08/07 09:08:30;;;;;;;7.22;6.63;;;;;;;31.08;38.35;99126.63;5072150;28;20245;-64
2022/08/07 09:11:11;;;;;;;7.60;7.00;;;;;;;31.32;37.40;99106.22;5072574;28;20192;-65
2022/08/07 09:13:47;;;;;;;7.22;6.60;;;;;;;31.58;37.05;99118.44;5072444;28;20230;-65
2022/08/07 09:16:21;;;;;;;7.82;7.13;;;;;;;31.79;36.23;99115.94;5071278;28;20436;-66
2022/08/07 09:19:07;;;;;;;8.57;7.68;;;;;;;32.05;36.04;99118.34;5071781;28;20223;-65
2022/08/07 09:21:44;;;;;;;7.90;7.30;;;;;;;32.11;35.93;99119.69;5071844;28;20215;-65
2022/08/07 09:24:25;;;;;;;7.53;6.82;;;;;;;32.07;35.88;99115.56;5072026;28;20219;-65
2022/08/07 09:27:01;;;;;;;6.78;6.07;;;;;;;31.71;35.39;99119.19;5071809;28;20206;-66
2022/08/07 09:29:39;;;;;;;7.32;6.63;;;;;;;31.74;35.44;99116.31;5071623;28;20195;-65
2022/08/07 09:32:19;;;;;;;8.00;6.72;;;;;;;31.65;35.81;99114.34;5071890;28;20211;-66
2022/08/07 09:34:55;;;;;;;6.55;6.00;;;;;;;31.41;35.77;99117.03;5071905;28;20199;-65
2022/08/07 09:37:33;;;;;;;6.22;5.72;;;;;;;31.22;36.31;99116.72;5071868;28;20195;-65
2022/08/07 09:40:08;;;;;;;6.93;6.22;;;;;;;31.01;36.54;99114.78;5071869;28;20278;-65
2022/08/07 09:42:47;;;;;;;8.77;6.22;;;;;;;30.92;37.33;99111.84;5070970;28;20429;-65
2022/08/07 09:45:18;;;;;;;6.70;6.03;;;;;;;30.91;36.76;99111.91;5071307;28;20215;-65
2022/08/07 09:47:57;;;;;;;8.07;7.25;;;;;;;30.89;37.12;99108.53;5071410;28;20535;-65
2022/08/07 09:50:33;;;;;;;6.85;6.22;;;;;;;30.93;37.11;99116.19;5071492;28;20295;-65
2022/08/07 09:53:04;;;;;;;6.50;6.00;;;;;;;30.98;36.63;99107.91;5071797;28;20191;-65
2022/08/07 09:55:43;;;;;;;6.05;5.65;;;;;;;30.90;36.36;99103.09;5071768;28;20191;-65
2022/08/07 09:58:29;;;;;;;6.97;6.38;;;;;;;30.87;37.58;99099.84;5071692;28;20187;-65
2022/08/07 10:01:05;;;;;;;6.68;6.07;;;;;;;31.04;36.25;99090.69;5071275;28;20195;-65
2022/08/07 10:03:46;;;;;;;6.70;5.90;;;;;;;31.33;35.42;99089.34;5071396;28;20195;-65
2022/08/07 10:06:29;;;;;;;7.03;5.75;;;;;;;31.69;34.53;99083.09;5071656;28;20249;-65
2022/08/07 10:09:31;;;;;;;6.70;5.28;;;;;;;31.67;34.40;99077.06;5071486;28;20202;-65
2022/08/07 10:12:15;;;;;;;5.65;5.25;;;;;;;31.70;34.38;99082.97;5067649;28;20195;-65
2022/08/07 10:15:10;;;;;;;8.15;6.65;;;;;;;32.07;34.65;99076.53;5071469;28;20191;-66
2022/08/07 10:17:59;;;;;;;6.10;5.60;;;;;;;32.19;33.25;99065.91;5070698;28;20227;-64
2022/08/07 10:20:35;;;;;;;5.85;5.35;;;;;;;32.13;33.00;99061.91;5071192;28;20192;-66
2022/08/07 10:23:24;;;;;;;5.80;5.35;;;;;;;32.05;33.09;99059.00;5070955;28;20231;-65
2022/08/07 10:26:03;;;;;;;5.83;5.23;;;;;;;32.18;33.07;99072.16;5070912;28;20823;-65
2022/08/07 10:28:44;;;;;;;5.32;4.93;;;;;;;31.90;32.54;99076.97;5071333;28;20429;-65
2022/08/07 10:31:33;;;;;;;6.00;5.40;;;;;;;32.09;32.57;99077.25;5071171;28;20187;-65
2022/08/07 10:34:17;;;;;;;5.70;4.78;;;;;;;32.46;31.92;99055.72;5071218;28;20191;-64
2022/08/07 10:37:01;;;;;;;5.07;4.68;;;;;;;32.90;30.82;99055.66;5071196;28;20200;-65
2022/08/07 10:39:44;;;;;;;5.40;4.90;;;;;;;32.75;31.22;99058.69;5071216;28;20241;-65
2022/08/07 10:42:27;;;;;;;5.25;4.85;;;;;;;32.44;30.93;99065.66;5071118;28;20199;-64
2022/08/07 10:45:02;;;;;;;5.32;4.90;;;;;;;32.43;30.32;99066.59;5070804;28;20218;-65
2022/08/07 10:47:37;;;;;;;5.80;4.13;;;;;;;32.39;29.98;99065.13;5071005;28;20191;-65
2022/08/07 10:50:12;;;;;;;5.22;4.35;;;;;;;32.35;30.38;99061.91;5070925;28;20194;-65
2022/08/07 10:52:51;;;;;;;4.90;4.50;;;;;;;32.56;29.79;99064.66;5070766;28;20446;-65
2022/08/07 10:55:24;;;;;;;6.32;4.68;;;;;;;32.77;29.50;99052.31;5070788;28;20205;-64
2022/08/07 10:58:03;;;;;;;4.60;4.30;;;;;;;32.90;29.92;99045.00;5069931;28;20287;-65
2022/08/07 11:00:36;;;;;;;4.72;4.32;;;;;;;32.96;29.67;99054.28;5070958;28;20195;-65
2022/08/07 11:03:07;;;;;;;6.88;5.18;;;;;;;32.84;29.52;99050.81;5070919;28;20187;-65
2022/08/07 11:05:42;;;;;;;4.55;4.15;;;;;;;33.06;29.25;99045.44;5070550;28;20212;-65
2022/08/07 11:08:17;;;;;;;4.75;4.43;;;;;;;33.13;29.26;99030.63;5070436;28;20191;-65
2022/08/07 11:10:52;;;;;;;4.70;4.40;;;;;;;33.28;29.06;99048.97;5070600;28;20249;-65
2022/08/07 11:13:30;;;;;;;4.55;4.25;;;;;;;33.50;29.23;99039.03;5070866;28;20203;-65
2022/08/07 11:16:06;;;;;;;4.85;4.53;;;;;;;33.45;28.89;99048.41;5070870;28;20202;-65
2022/08/07 11:18:39;;;;;;;5.25;4.75;;;;;;;33.73;29.21;99037.13;5070414;28;20229;-64
2022/08/07 11:21:14;;;;;;;4.95;4.55;;;;;;;33.83;27.76;99038.00;5070785;28;20203;-64
2022/08/07 11:23:49;;;;;;;5.18;4.78;;;;;;;33.45;28.80;99013.75;5070762;28;20574;-64
2022/08/07 11:26:24;;;;;;;5.32;4.85;;;;;;;33.53;28.18;99033.47;5070911;28;20662;-64
2022/08/07 11:28:58;;;;;;;4.93;4.53;;;;;;;33.58;29.08;99027.75;5070614;28;20191;-64
2022/08/07 11:31:42;;;;;;;4.68;4.38;;;;;;;33.30;28.33;99031.03;5070670;28;20190;-64
2022/08/07 11:34:17;;;;;;;4.97;4.55;;;;;;;33.07;28.48;99028.47;5070421;28;20195;-64
2022/08/07 11:36:56;;;;;;;5.05;4.60;;;;;;;33.23;28.39;99018.25;5070490;28;20662;-65
2022/08/07 11:39:40;;;;;;;4.90;4.38;;;;;;;33.75;27.75;99029.81;5070756;28;20225;-65
2022/08/07 11:42:14;;;;;;;4.93;4.43;;;;;;;33.73;27.10;99035.28;5070113;28;20191;-65
2022/08/07 11:44:51;;;;;;;6.65;4.63;;;;;;;33.61;27.26;99020.34;5070172;28;20218;-64
2022/08/07 11:47:30;;;;;;;4.97;4.50;;;;;;;33.32;27.31;99019.28;5069768;28;20638;-65
2022/08/07 11:50:25;;;;;;;4.95;4.45;;;;;;;33.70;27.55;99008.06;5069969;28;20638;-65